Terminal Aerodrome Forecast
Issued by NWS Bismarck, ND

Home | Current Version | Previous Version | Graphics & Text | Print | Product List | Glossary On
Versions: 1 2 3 4 5 6 7 8 9 10 11 12 13 14 15 16 17 18 19
000
FTUS43 KBIS 241300 AAA
TAFISN
TAF AMD
KISN 241349Z 2414/2512 32009KT P6SM BKN015 OVC050
     FM241600 01007KT 2SM -SN BKN015 OVC035
     FM241900 09005KT 3SM -SN BKN015 OVC025
     FM250300 05009KT 1SM -SN BR OVC015=

USA.gov is the U.S. government's official web portal to all federal, state and local government web resources and services.